Madisonville, TX (77864)

4:49 AM CST on February 21, 2017 (GMT -0600)
Town Branch Madisonville | | Change Station
Active Advisory: Marine Fog Advisory

Elev 272 ft 30.96 °N, 95.91 °W | Updated 8 seconds ago

Overcast
Overcast
59.2 °F
Feels Like 59.2 °F
N
2.0
Wind Variable Wind from ESE

Today
High -- | Low -- °F
--% Chance of Precip.
Yesterday
High -- | Low -- °F
Precip. -- in
Pressure 29.93 in
Visibility 10.0 miles
Clouds Scattered Clouds 1000 ft
Overcast 1800 ft
Dew Point 57 °F
Humidity 93%
Rainfall 0.00 in
Snow Depth Not available.
6:58 AM 6:16 PM
Waning Crescent, 26% visible
SPECI KUTS 211011Z AUTO 21005KT 10SM SCT010 OVC018 16/13 A2993 RMK AO2 T01560133 $
Pressure 29.93 in
Visibility 10.0 miles
Clouds Scattered Clouds 1000 ft
Overcast 1800 ft
Dew Point 57 °F
Humidity 93%
Rainfall 0.00 in
Snow Depth Not available.
6:58 AM 6:16 PM
Waning Crescent, 26% visible
SPECI KUTS 211011Z AUTO 21005KT 10SM SCT010 OVC018 16/13 A2993 RMK AO2 T01560133 $

Get Your Daily Forecast Email!

Thanks for signing up!

Be on the lookout for a verification email in your inbox.

You'll start receiving the daily forecast at 8 AM.

×

10-Day Weather Forecast

Almanac

Astronomy

Feb. 21, 2017 Rise Set
Actual Time
Civil Twilight
Nautical Twilight
Astronomical Twilight
Moon
Length of Visible Light
Length of Day
Tomorrow will be .
, % of the Moon is Illuminated

Today's Extremes

State Highs State Lows

Community

WunderPhotos

Upload Photos

1,962,540 photos uploaded!

WunderBlog® & News

Nearby

Air Quality

  Air Quality AQ Index Pollutant
Not available.

Snow Depth

Station Depth Elevation

Earthquake Activity

City Distance Mag. Time & Date
Minimum magnitude displayed is 2.5.

Coastal Water Temperatures

Place Temperature

Stations

Nearby Weather Stations

Station Location Temp. Windchill Dew Point Humidity Wind Precip. Elev Updated Type
                   

Watches & Warnings

Marine Fog Advisory
Issued: 3:31 AM CST Feb. 21, 2017 – National Weather Service

... Dense fog advisory in effect until 7 am CST this morning...

The National Weather Service in Houston/Galveston has issued a
dense fog advisory, which is in effect until 7 am CST this
morning.

* Visibility... less than 1 nautical mile.

Precautionary/preparedness actions...

Mariners should be prepared for sudden changes in visibility over
short distances. Reduce your speed and keep a lookout for other
vessels... buoys and breakwaters. Keep your navigation lights on.
Inexperienced mariners... especially those operating smaller craft
or not equipped with radar... should consider seeking safe Harbor.